<?xml version="1.0" encoding="UTF-8" standalone="no" ?>
<gpx xmlns="http://www.topografix.com/GPX/1/1" xmlns:xsi="http://www.w3.org/2001/XMLSchema-instance" xsi:schemaLocation="http://www.topografix.com/GPX/1/1 http://www.topografix.com/GPX/1/1/gpx.xsd" version="1.1" creator="VisuGPX - https://www.visugpx.com">
  <metadata>
    <name>st germain ouistreham 53 kms</name>
  </metadata>
  <trk>
    <name><![CDATA[13412373-st germain ouistreham 53 kms]]></name>
    <trkseg>
      <trkpt lat="49.19899" lon="-0.40945">
        <ele>66</ele>
        <time>2022-06-09T06:32:10Z</time>
      </trkpt>
      <trkpt lat="49.19907" lon="-0.40898">
        <ele>66</ele>
        <time>2022-06-09T06:32:16Z</time>
      </trkpt>
      <trkpt lat="49.19915" lon="-0.40857">
        <ele>66</ele>
        <time>2022-06-09T06:32:21Z</time>
      </trkpt>
      <trkpt lat="49.19931" lon="-0.4084">
        <ele>66</ele>
        <time>2022-06-09T06:32:24Z</time>
      </trkpt>
      <trkpt lat="49.19951" lon="-0.40826">
        <ele>67</ele>
        <time>2022-06-09T06:32:28Z</time>
      </trkpt>
      <trkpt lat="49.19984" lon="-0.40826">
        <ele>68</ele>
        <time>2022-06-09T06:32:34Z</time>
      </trkpt>
      <trkpt lat="49.2007" lon="-0.40721">
        <ele>66</ele>
        <time>2022-06-09T06:32:53Z</time>
      </trkpt>
      <trkpt lat="49.20099" lon="-0.40688">
        <ele>65</ele>
        <time>2022-06-09T06:33:00Z</time>
      </trkpt>
      <trkpt lat="49.20143" lon="-0.4057">
        <ele>67</ele>
        <time>2022-06-09T06:33:16Z</time>
      </trkpt>
      <trkpt lat="49.20185" lon="-0.40534">
        <ele>66</ele>
        <time>2022-06-09T06:33:24Z</time>
      </trkpt>
      <trkpt lat="49.20207" lon="-0.40518">
        <ele>66</ele>
        <time>2022-06-09T06:33:29Z</time>
      </trkpt>
      <trkpt lat="49.20167" lon="-0.40335">
        <ele>65</ele>
        <time>2022-06-09T06:33:51Z</time>
      </trkpt>
      <trkpt lat="49.20154" lon="-0.40161">
        <ele>65</ele>
        <time>2022-06-09T06:34:11Z</time>
      </trkpt>
      <trkpt lat="49.20157" lon="-0.40004">
        <ele>65</ele>
        <time>2022-06-09T06:34:30Z</time>
      </trkpt>
      <trkpt lat="49.20158" lon="-0.39855">
        <ele>64</ele>
        <time>2022-06-09T06:34:47Z</time>
      </trkpt>
      <trkpt lat="49.20141" lon="-0.39729">
        <ele>65</ele>
        <time>2022-06-09T06:35:02Z</time>
      </trkpt>
      <trkpt lat="49.20101" lon="-0.39601">
        <ele>64</ele>
        <time>2022-06-09T06:35:18Z</time>
      </trkpt>
      <trkpt lat="49.20095" lon="-0.39534">
        <ele>63</ele>
        <time>2022-06-09T06:35:26Z</time>
      </trkpt>
      <trkpt lat="49.20146" lon="-0.39493">
        <ele>64</ele>
        <time>2022-06-09T06:35:37Z</time>
      </trkpt>
      <trkpt lat="49.20182" lon="-0.39441">
        <ele>63</ele>
        <time>2022-06-09T06:35:45Z</time>
      </trkpt>
      <trkpt lat="49.20227" lon="-0.39364">
        <ele>65</ele>
        <time>2022-06-09T06:35:57Z</time>
      </trkpt>
      <trkpt lat="49.20273" lon="-0.3924">
        <ele>66</ele>
        <time>2022-06-09T06:36:14Z</time>
      </trkpt>
      <trkpt lat="49.20282" lon="-0.39187">
        <ele>67</ele>
        <time>2022-06-09T06:36:20Z</time>
      </trkpt>
      <trkpt lat="49.20272" lon="-0.39128">
        <ele>67</ele>
        <time>2022-06-09T06:36:27Z</time>
      </trkpt>
      <trkpt lat="49.20304" lon="-0.39091">
        <ele>67</ele>
        <time>2022-06-09T06:36:34Z</time>
      </trkpt>
      <trkpt lat="49.20341" lon="-0.38917">
        <ele>66</ele>
        <time>2022-06-09T06:36:56Z</time>
      </trkpt>
      <trkpt lat="49.20377" lon="-0.38748">
        <ele>65</ele>
        <time>2022-06-09T06:37:16Z</time>
      </trkpt>
      <trkpt lat="49.20407" lon="-0.38626">
        <ele>64</ele>
        <time>2022-06-09T06:37:32Z</time>
      </trkpt>
      <trkpt lat="49.20437" lon="-0.38533">
        <ele>65</ele>
        <time>2022-06-09T06:37:44Z</time>
      </trkpt>
      <trkpt lat="49.20474" lon="-0.3845">
        <ele>66</ele>
        <time>2022-06-09T06:37:55Z</time>
      </trkpt>
      <trkpt lat="49.20511" lon="-0.38366">
        <ele>66</ele>
        <time>2022-06-09T06:38:07Z</time>
      </trkpt>
      <trkpt lat="49.20554" lon="-0.38286">
        <ele>65</ele>
        <time>2022-06-09T06:38:19Z</time>
      </trkpt>
      <trkpt lat="49.20602" lon="-0.382">
        <ele>64</ele>
        <time>2022-06-09T06:38:32Z</time>
      </trkpt>
      <trkpt lat="49.2065" lon="-0.38113">
        <ele>63</ele>
        <time>2022-06-09T06:38:46Z</time>
      </trkpt>
      <trkpt lat="49.20699" lon="-0.38028">
        <ele>60</ele>
        <time>2022-06-09T06:38:59Z</time>
      </trkpt>
      <trkpt lat="49.20748" lon="-0.37944">
        <ele>59</ele>
        <time>2022-06-09T06:39:12Z</time>
      </trkpt>
      <trkpt lat="49.20797" lon="-0.37847">
        <ele>60</ele>
        <time>2022-06-09T06:39:26Z</time>
      </trkpt>
      <trkpt lat="49.20841" lon="-0.37747">
        <ele>60</ele>
        <time>2022-06-09T06:39:40Z</time>
      </trkpt>
      <trkpt lat="49.20872" lon="-0.37699">
        <ele>62</ele>
        <time>2022-06-09T06:39:48Z</time>
      </trkpt>
      <trkpt lat="49.20967" lon="-0.37746">
        <ele>64</ele>
        <time>2022-06-09T06:40:06Z</time>
      </trkpt>
      <trkpt lat="49.2106" lon="-0.37793">
        <ele>65</ele>
        <time>2022-06-09T06:40:23Z</time>
      </trkpt>
      <trkpt lat="49.2117" lon="-0.37872">
        <ele>63</ele>
        <time>2022-06-09T06:40:45Z</time>
      </trkpt>
      <trkpt lat="49.21224" lon="-0.37771">
        <ele>60</ele>
        <time>2022-06-09T06:41:00Z</time>
      </trkpt>
      <trkpt lat="49.21295" lon="-0.37709">
        <ele>60</ele>
        <time>2022-06-09T06:41:14Z</time>
      </trkpt>
      <trkpt lat="49.21328" lon="-0.3764">
        <ele>59</ele>
        <time>2022-06-09T06:41:24Z</time>
      </trkpt>
      <trkpt lat="49.21382" lon="-0.37526">
        <ele>58</ele>
        <time>2022-06-09T06:41:41Z</time>
      </trkpt>
      <trkpt lat="49.21441" lon="-0.37416">
        <ele>57</ele>
        <time>2022-06-09T06:41:57Z</time>
      </trkpt>
      <trkpt lat="49.21502" lon="-0.37314">
        <ele>59</ele>
        <time>2022-06-09T06:42:13Z</time>
      </trkpt>
      <trkpt lat="49.21555" lon="-0.37228">
        <ele>57</ele>
        <time>2022-06-09T06:42:27Z</time>
      </trkpt>
      <trkpt lat="49.21593" lon="-0.37097">
        <ele>55</ele>
        <time>2022-06-09T06:42:44Z</time>
      </trkpt>
      <trkpt lat="49.21626" lon="-0.37009">
        <ele>57</ele>
        <time>2022-06-09T06:42:56Z</time>
      </trkpt>
      <trkpt lat="49.21666" lon="-0.36947">
        <ele>57</ele>
        <time>2022-06-09T06:43:06Z</time>
      </trkpt>
      <trkpt lat="49.21741" lon="-0.36888">
        <ele>56</ele>
        <time>2022-06-09T06:43:21Z</time>
      </trkpt>
      <trkpt lat="49.21815" lon="-0.36829">
        <ele>53</ele>
        <time>2022-06-09T06:43:36Z</time>
      </trkpt>
      <trkpt lat="49.21832" lon="-0.368">
        <ele>53</ele>
        <time>2022-06-09T06:43:40Z</time>
      </trkpt>
      <trkpt lat="49.21893" lon="-0.36725">
        <ele>53</ele>
        <time>2022-06-09T06:43:54Z</time>
      </trkpt>
      <trkpt lat="49.21926" lon="-0.36666">
        <ele>53</ele>
        <time>2022-06-09T06:44:03Z</time>
      </trkpt>
      <trkpt lat="49.22043" lon="-0.36715">
        <ele>50</ele>
        <time>2022-06-09T06:44:25Z</time>
      </trkpt>
      <trkpt lat="49.2216" lon="-0.36761">
        <ele>52</ele>
        <time>2022-06-09T06:44:46Z</time>
      </trkpt>
      <trkpt lat="49.22277" lon="-0.36807">
        <ele>50</ele>
        <time>2022-06-09T06:45:08Z</time>
      </trkpt>
      <trkpt lat="49.22392" lon="-0.36855">
        <ele>50</ele>
        <time>2022-06-09T06:45:29Z</time>
      </trkpt>
      <trkpt lat="49.22494" lon="-0.36903">
        <ele>50</ele>
        <time>2022-06-09T06:45:48Z</time>
      </trkpt>
      <trkpt lat="49.22592" lon="-0.36937">
        <ele>54</ele>
        <time>2022-06-09T06:46:06Z</time>
      </trkpt>
      <trkpt lat="49.22687" lon="-0.36981">
        <ele>56</ele>
        <time>2022-06-09T06:46:23Z</time>
      </trkpt>
      <trkpt lat="49.22784" lon="-0.37021">
        <ele>57</ele>
        <time>2022-06-09T06:46:41Z</time>
      </trkpt>
      <trkpt lat="49.22882" lon="-0.37061">
        <ele>56</ele>
        <time>2022-06-09T06:46:59Z</time>
      </trkpt>
      <trkpt lat="49.22921" lon="-0.37079">
        <ele>56</ele>
        <time>2022-06-09T06:47:06Z</time>
      </trkpt>
      <trkpt lat="49.22959" lon="-0.37053">
        <ele>55</ele>
        <time>2022-06-09T06:47:14Z</time>
      </trkpt>
      <trkpt lat="49.22991" lon="-0.37067">
        <ele>55</ele>
        <time>2022-06-09T06:47:20Z</time>
      </trkpt>
      <trkpt lat="49.23015" lon="-0.37114">
        <ele>55</ele>
        <time>2022-06-09T06:47:27Z</time>
      </trkpt>
      <trkpt lat="49.23134" lon="-0.37164">
        <ele>54</ele>
        <time>2022-06-09T06:47:49Z</time>
      </trkpt>
      <trkpt lat="49.23253" lon="-0.37215">
        <ele>54</ele>
        <time>2022-06-09T06:48:11Z</time>
      </trkpt>
      <trkpt lat="49.23334" lon="-0.37223">
        <ele>52</ele>
        <time>2022-06-09T06:48:25Z</time>
      </trkpt>
      <trkpt lat="49.23361" lon="-0.37233">
        <ele>51</ele>
        <time>2022-06-09T06:48:30Z</time>
      </trkpt>
      <trkpt lat="49.2348" lon="-0.37222">
        <ele>50</ele>
        <time>2022-06-09T06:48:51Z</time>
      </trkpt>
      <trkpt lat="49.23574" lon="-0.37221">
        <ele>48</ele>
        <time>2022-06-09T06:49:08Z</time>
      </trkpt>
      <trkpt lat="49.2361" lon="-0.37199">
        <ele>48</ele>
        <time>2022-06-09T06:49:15Z</time>
      </trkpt>
      <trkpt lat="49.23732" lon="-0.37187">
        <ele>48</ele>
        <time>2022-06-09T06:49:37Z</time>
      </trkpt>
      <trkpt lat="49.23853" lon="-0.37175">
        <ele>47</ele>
        <time>2022-06-09T06:49:58Z</time>
      </trkpt>
      <trkpt lat="49.23974" lon="-0.37163">
        <ele>47</ele>
        <time>2022-06-09T06:50:20Z</time>
      </trkpt>
      <trkpt lat="49.24092" lon="-0.37158">
        <ele>44</ele>
        <time>2022-06-09T06:50:41Z</time>
      </trkpt>
      <trkpt lat="49.24211" lon="-0.37152">
        <ele>44</ele>
        <time>2022-06-09T06:51:02Z</time>
      </trkpt>
      <trkpt lat="49.24329" lon="-0.37147">
        <ele>45</ele>
        <time>2022-06-09T06:51:23Z</time>
      </trkpt>
      <trkpt lat="49.24446" lon="-0.37147">
        <ele>46</ele>
        <time>2022-06-09T06:51:44Z</time>
      </trkpt>
      <trkpt lat="49.2449" lon="-0.37145">
        <ele>48</ele>
        <time>2022-06-09T06:51:52Z</time>
      </trkpt>
      <trkpt lat="49.24578" lon="-0.37126">
        <ele>49</ele>
        <time>2022-06-09T06:52:07Z</time>
      </trkpt>
      <trkpt lat="49.24672" lon="-0.3712">
        <ele>49</ele>
        <time>2022-06-09T06:52:24Z</time>
      </trkpt>
      <trkpt lat="49.24767" lon="-0.37123">
        <ele>49</ele>
        <time>2022-06-09T06:52:41Z</time>
      </trkpt>
      <trkpt lat="49.24863" lon="-0.37149">
        <ele>50</ele>
        <time>2022-06-09T06:52:58Z</time>
      </trkpt>
      <trkpt lat="49.24965" lon="-0.37178">
        <ele>52</ele>
        <time>2022-06-09T06:53:17Z</time>
      </trkpt>
      <trkpt lat="49.25068" lon="-0.37213">
        <ele>51</ele>
        <time>2022-06-09T06:53:36Z</time>
      </trkpt>
      <trkpt lat="49.25231" lon="-0.3725">
        <ele>49</ele>
        <time>2022-06-09T06:54:05Z</time>
      </trkpt>
      <trkpt lat="49.2524" lon="-0.3723">
        <ele>48</ele>
        <time>2022-06-09T06:54:08Z</time>
      </trkpt>
      <trkpt lat="49.25233" lon="-0.37146">
        <ele>47</ele>
        <time>2022-06-09T06:54:18Z</time>
      </trkpt>
      <trkpt lat="49.25107" lon="-0.36751">
        <ele>48</ele>
        <time>2022-06-09T06:55:09Z</time>
      </trkpt>
      <trkpt lat="49.25079" lon="-0.36671">
        <ele>47</ele>
        <time>2022-06-09T06:55:19Z</time>
      </trkpt>
      <trkpt lat="49.25111" lon="-0.36552">
        <ele>46</ele>
        <time>2022-06-09T06:55:34Z</time>
      </trkpt>
      <trkpt lat="49.25103" lon="-0.36519">
        <ele>46</ele>
        <time>2022-06-09T06:55:38Z</time>
      </trkpt>
      <trkpt lat="49.25169" lon="-0.36378">
        <ele>47</ele>
        <time>2022-06-09T06:55:58Z</time>
      </trkpt>
      <trkpt lat="49.25241" lon="-0.36238">
        <ele>46</ele>
        <time>2022-06-09T06:56:19Z</time>
      </trkpt>
      <trkpt lat="49.25324" lon="-0.36215">
        <ele>45</ele>
        <time>2022-06-09T06:56:34Z</time>
      </trkpt>
      <trkpt lat="49.2532" lon="-0.36029">
        <ele>45</ele>
        <time>2022-06-09T06:56:56Z</time>
      </trkpt>
      <trkpt lat="49.25352" lon="-0.35843">
        <ele>41</ele>
        <time>2022-06-09T06:57:18Z</time>
      </trkpt>
      <trkpt lat="49.25409" lon="-0.35575">
        <ele>42</ele>
        <time>2022-06-09T06:57:51Z</time>
      </trkpt>
      <trkpt lat="49.25469" lon="-0.35318">
        <ele>40</ele>
        <time>2022-06-09T06:58:23Z</time>
      </trkpt>
      <trkpt lat="49.25562" lon="-0.35026">
        <ele>39</ele>
        <time>2022-06-09T06:59:00Z</time>
      </trkpt>
      <trkpt lat="49.25671" lon="-0.34886">
        <ele>36</ele>
        <time>2022-06-09T06:59:26Z</time>
      </trkpt>
      <trkpt lat="49.25824" lon="-0.34738">
        <ele>36</ele>
        <time>2022-06-09T06:59:58Z</time>
      </trkpt>
      <trkpt lat="49.25951" lon="-0.34636">
        <ele>35</ele>
        <time>2022-06-09T07:00:23Z</time>
      </trkpt>
      <trkpt lat="49.25975" lon="-0.34576">
        <ele>33</ele>
        <time>2022-06-09T07:00:31Z</time>
      </trkpt>
      <trkpt lat="49.25932" lon="-0.34417">
        <ele>32</ele>
        <time>2022-06-09T07:00:51Z</time>
      </trkpt>
      <trkpt lat="49.25899" lon="-0.34356">
        <ele>31</ele>
        <time>2022-06-09T07:01:01Z</time>
      </trkpt>
      <trkpt lat="49.25961" lon="-0.3424">
        <ele>31</ele>
        <time>2022-06-09T07:01:18Z</time>
      </trkpt>
      <trkpt lat="49.25978" lon="-0.34175">
        <ele>34</ele>
        <time>2022-06-09T07:01:26Z</time>
      </trkpt>
      <trkpt lat="49.26059" lon="-0.34321">
        <ele>34</ele>
        <time>2022-06-09T07:01:48Z</time>
      </trkpt>
      <trkpt lat="49.26193" lon="-0.34372">
        <ele>42</ele>
        <time>2022-06-09T07:02:13Z</time>
      </trkpt>
      <trkpt lat="49.26374" lon="-0.34449">
        <ele>47</ele>
        <time>2022-06-09T07:02:46Z</time>
      </trkpt>
      <trkpt lat="49.26556" lon="-0.34525">
        <ele>50</ele>
        <time>2022-06-09T07:03:20Z</time>
      </trkpt>
      <trkpt lat="49.26722" lon="-0.34655">
        <ele>52</ele>
        <time>2022-06-09T07:03:53Z</time>
      </trkpt>
      <trkpt lat="49.26887" lon="-0.34814">
        <ele>53</ele>
        <time>2022-06-09T07:04:28Z</time>
      </trkpt>
      <trkpt lat="49.27062" lon="-0.34936">
        <ele>53</ele>
        <time>2022-06-09T07:05:02Z</time>
      </trkpt>
      <trkpt lat="49.27237" lon="-0.35059">
        <ele>51</ele>
        <time>2022-06-09T07:05:36Z</time>
      </trkpt>
      <trkpt lat="49.27412" lon="-0.35148">
        <ele>48</ele>
        <time>2022-06-09T07:06:09Z</time>
      </trkpt>
      <trkpt lat="49.27576" lon="-0.35217">
        <ele>42</ele>
        <time>2022-06-09T07:06:39Z</time>
      </trkpt>
      <trkpt lat="49.27701" lon="-0.35306">
        <ele>37</ele>
        <time>2022-06-09T07:07:04Z</time>
      </trkpt>
      <trkpt lat="49.27753" lon="-0.35403">
        <ele>37</ele>
        <time>2022-06-09T07:07:18Z</time>
      </trkpt>
      <trkpt lat="49.27811" lon="-0.35436">
        <ele>37</ele>
        <time>2022-06-09T07:07:29Z</time>
      </trkpt>
      <trkpt lat="49.27926" lon="-0.35628">
        <ele>37</ele>
        <time>2022-06-09T07:08:00Z</time>
      </trkpt>
      <trkpt lat="49.27974" lon="-0.35619">
        <ele>37</ele>
        <time>2022-06-09T07:08:08Z</time>
      </trkpt>
      <trkpt lat="49.27994" lon="-0.35652">
        <ele>37</ele>
        <time>2022-06-09T07:08:14Z</time>
      </trkpt>
      <trkpt lat="49.28153" lon="-0.35619">
        <ele>30</ele>
        <time>2022-06-09T07:08:42Z</time>
      </trkpt>
      <trkpt lat="49.283" lon="-0.35621">
        <ele>30</ele>
        <time>2022-06-09T07:09:08Z</time>
      </trkpt>
      <trkpt lat="49.28434" lon="-0.35614">
        <ele>31</ele>
        <time>2022-06-09T07:09:32Z</time>
      </trkpt>
      <trkpt lat="49.28561" lon="-0.35604">
        <ele>30</ele>
        <time>2022-06-09T07:09:55Z</time>
      </trkpt>
      <trkpt lat="49.28598" lon="-0.35626">
        <ele>29</ele>
        <time>2022-06-09T07:10:02Z</time>
      </trkpt>
      <trkpt lat="49.28624" lon="-0.35697">
        <ele>28</ele>
        <time>2022-06-09T07:10:11Z</time>
      </trkpt>
      <trkpt lat="49.28723" lon="-0.35623">
        <ele>28</ele>
        <time>2022-06-09T07:10:31Z</time>
      </trkpt>
      <trkpt lat="49.28836" lon="-0.35549">
        <ele>27</ele>
        <time>2022-06-09T07:10:53Z</time>
      </trkpt>
      <trkpt lat="49.28937" lon="-0.3546">
        <ele>26</ele>
        <time>2022-06-09T07:11:13Z</time>
      </trkpt>
      <trkpt lat="49.29017" lon="-0.35386">
        <ele>24</ele>
        <time>2022-06-09T07:11:30Z</time>
      </trkpt>
      <trkpt lat="49.2905" lon="-0.35346">
        <ele>24</ele>
        <time>2022-06-09T07:11:38Z</time>
      </trkpt>
      <trkpt lat="49.29036" lon="-0.35285">
        <ele>25</ele>
        <time>2022-06-09T07:11:45Z</time>
      </trkpt>
      <trkpt lat="49.29066" lon="-0.3521">
        <ele>23</ele>
        <time>2022-06-09T07:11:55Z</time>
      </trkpt>
      <trkpt lat="49.29087" lon="-0.35154">
        <ele>22</ele>
        <time>2022-06-09T07:12:03Z</time>
      </trkpt>
      <trkpt lat="49.29129" lon="-0.35066">
        <ele>24</ele>
        <time>2022-06-09T07:12:15Z</time>
      </trkpt>
      <trkpt lat="49.29144" lon="-0.34992">
        <ele>23</ele>
        <time>2022-06-09T07:12:24Z</time>
      </trkpt>
      <trkpt lat="49.29194" lon="-0.34883">
        <ele>22</ele>
        <time>2022-06-09T07:12:40Z</time>
      </trkpt>
      <trkpt lat="49.2915" lon="-0.34567">
        <ele>22</ele>
        <time>2022-06-09T07:13:17Z</time>
      </trkpt>
      <trkpt lat="49.29198" lon="-0.34257">
        <ele>23</ele>
        <time>2022-06-09T07:13:54Z</time>
      </trkpt>
      <trkpt lat="49.29321" lon="-0.34081">
        <ele>20</ele>
        <time>2022-06-09T07:14:24Z</time>
      </trkpt>
      <trkpt lat="49.29442" lon="-0.3391">
        <ele>19</ele>
        <time>2022-06-09T07:14:54Z</time>
      </trkpt>
      <trkpt lat="49.29564" lon="-0.3374">
        <ele>17</ele>
        <time>2022-06-09T07:15:23Z</time>
      </trkpt>
      <trkpt lat="49.29685" lon="-0.3357">
        <ele>16</ele>
        <time>2022-06-09T07:15:52Z</time>
      </trkpt>
      <trkpt lat="49.29807" lon="-0.33412">
        <ele>15</ele>
        <time>2022-06-09T07:16:21Z</time>
      </trkpt>
      <trkpt lat="49.29928" lon="-0.33254">
        <ele>14</ele>
        <time>2022-06-09T07:16:49Z</time>
      </trkpt>
      <trkpt lat="49.30021" lon="-0.33131">
        <ele>15</ele>
        <time>2022-06-09T07:17:11Z</time>
      </trkpt>
      <trkpt lat="49.30144" lon="-0.33357">
        <ele>13</ele>
        <time>2022-06-09T07:17:45Z</time>
      </trkpt>
      <trkpt lat="49.30313" lon="-0.33648">
        <ele>16</ele>
        <time>2022-06-09T07:18:30Z</time>
      </trkpt>
      <trkpt lat="49.30442" lon="-0.33906">
        <ele>15</ele>
        <time>2022-06-09T07:19:08Z</time>
      </trkpt>
      <trkpt lat="49.30572" lon="-0.34163">
        <ele>14</ele>
        <time>2022-06-09T07:19:45Z</time>
      </trkpt>
      <trkpt lat="49.3063" lon="-0.34231">
        <ele>13</ele>
        <time>2022-06-09T07:19:58Z</time>
      </trkpt>
      <trkpt lat="49.30649" lon="-0.34264">
        <ele>13</ele>
        <time>2022-06-09T07:20:04Z</time>
      </trkpt>
      <trkpt lat="49.30749" lon="-0.3465">
        <ele>13</ele>
        <time>2022-06-09T07:20:52Z</time>
      </trkpt>
      <trkpt lat="49.30847" lon="-0.3491">
        <ele>13</ele>
        <time>2022-06-09T07:21:27Z</time>
      </trkpt>
      <trkpt lat="49.3115" lon="-0.34565">
        <ele>10</ele>
        <time>2022-06-09T07:22:34Z</time>
      </trkpt>
      <trkpt lat="49.31401" lon="-0.34292">
        <ele>8</ele>
        <time>2022-06-09T07:23:28Z</time>
      </trkpt>
      <trkpt lat="49.31199" lon="-0.33788">
        <ele>8</ele>
        <time>2022-06-09T07:24:37Z</time>
      </trkpt>
      <trkpt lat="49.31011" lon="-0.33327">
        <ele>9</ele>
        <time>2022-06-09T07:25:40Z</time>
      </trkpt>
      <trkpt lat="49.30862" lon="-0.32976">
        <ele>10</ele>
        <time>2022-06-09T07:26:29Z</time>
      </trkpt>
      <trkpt lat="49.30727" lon="-0.32697">
        <ele>9</ele>
        <time>2022-06-09T07:27:09Z</time>
      </trkpt>
      <trkpt lat="49.3059" lon="-0.32424">
        <ele>7</ele>
        <time>2022-06-09T07:27:49Z</time>
      </trkpt>
      <trkpt lat="49.30573" lon="-0.32436">
        <ele>7</ele>
        <time>2022-06-09T07:27:52Z</time>
      </trkpt>
      <trkpt lat="49.30555" lon="-0.32416">
        <ele>8</ele>
        <time>2022-06-09T07:27:56Z</time>
      </trkpt>
      <trkpt lat="49.30555" lon="-0.32373">
        <ele>8</ele>
        <time>2022-06-09T07:28:01Z</time>
      </trkpt>
      <trkpt lat="49.30353" lon="-0.32066">
        <ele>9</ele>
        <time>2022-06-09T07:28:52Z</time>
      </trkpt>
      <trkpt lat="49.30199" lon="-0.31848">
        <ele>8</ele>
        <time>2022-06-09T07:29:29Z</time>
      </trkpt>
      <trkpt lat="49.30044" lon="-0.3163">
        <ele>6</ele>
        <time>2022-06-09T07:30:07Z</time>
      </trkpt>
      <trkpt lat="49.29997" lon="-0.31553">
        <ele>7</ele>
        <time>2022-06-09T07:30:19Z</time>
      </trkpt>
      <trkpt lat="49.29929" lon="-0.31457">
        <ele>8</ele>
        <time>2022-06-09T07:30:35Z</time>
      </trkpt>
      <trkpt lat="49.29869" lon="-0.31124">
        <ele>8</ele>
        <time>2022-06-09T07:31:15Z</time>
      </trkpt>
      <trkpt lat="49.29817" lon="-0.30781">
        <ele>4</ele>
        <time>2022-06-09T07:31:56Z</time>
      </trkpt>
      <trkpt lat="49.29778" lon="-0.30534">
        <ele>5</ele>
        <time>2022-06-09T07:32:26Z</time>
      </trkpt>
      <trkpt lat="49.29701" lon="-0.30313">
        <ele>5</ele>
        <time>2022-06-09T07:32:55Z</time>
      </trkpt>
      <trkpt lat="49.29651" lon="-0.30146">
        <ele>3</ele>
        <time>2022-06-09T07:33:16Z</time>
      </trkpt>
      <trkpt lat="49.29611" lon="-0.29852">
        <ele>6</ele>
        <time>2022-06-09T07:33:51Z</time>
      </trkpt>
      <trkpt lat="49.29529" lon="-0.29572">
        <ele>6</ele>
        <time>2022-06-09T07:34:27Z</time>
      </trkpt>
      <trkpt lat="49.29476" lon="-0.2941">
        <ele>6</ele>
        <time>2022-06-09T07:34:48Z</time>
      </trkpt>
      <trkpt lat="49.2932" lon="-0.28913">
        <ele>5</ele>
        <time>2022-06-09T07:35:52Z</time>
      </trkpt>
      <trkpt lat="49.29239" lon="-0.28654">
        <ele>6</ele>
        <time>2022-06-09T07:36:25Z</time>
      </trkpt>
      <trkpt lat="49.29119" lon="-0.28269">
        <ele>6</ele>
        <time>2022-06-09T07:37:14Z</time>
      </trkpt>
      <trkpt lat="49.29087" lon="-0.28148">
        <ele>4</ele>
        <time>2022-06-09T07:37:30Z</time>
      </trkpt>
      <trkpt lat="49.29164" lon="-0.28039">
        <ele>6</ele>
        <time>2022-06-09T07:37:48Z</time>
      </trkpt>
      <trkpt lat="49.2922" lon="-0.27956">
        <ele>6</ele>
        <time>2022-06-09T07:38:02Z</time>
      </trkpt>
      <trkpt lat="49.29136" lon="-0.27422">
        <ele>5</ele>
        <time>2022-06-09T07:39:06Z</time>
      </trkpt>
      <trkpt lat="49.29058" lon="-0.26901">
        <ele>7</ele>
        <time>2022-06-09T07:40:08Z</time>
      </trkpt>
      <trkpt lat="49.28981" lon="-0.26425">
        <ele>7</ele>
        <time>2022-06-09T07:41:05Z</time>
      </trkpt>
      <trkpt lat="49.28906" lon="-0.26096">
        <ele>7</ele>
        <time>2022-06-09T07:41:45Z</time>
      </trkpt>
      <trkpt lat="49.2883" lon="-0.25749">
        <ele>4</ele>
        <time>2022-06-09T07:42:28Z</time>
      </trkpt>
      <trkpt lat="49.28797" lon="-0.25578">
        <ele>6</ele>
        <time>2022-06-09T07:42:48Z</time>
      </trkpt>
      <trkpt lat="49.28677" lon="-0.25043">
        <ele>5</ele>
        <time>2022-06-09T07:43:54Z</time>
      </trkpt>
      <trkpt lat="49.28671" lon="-0.24972">
        <ele>5</ele>
        <time>2022-06-09T07:44:02Z</time>
      </trkpt>
      <trkpt lat="49.28529" lon="-0.25018">
        <ele>5</ele>
        <time>2022-06-09T07:44:28Z</time>
      </trkpt>
      <trkpt lat="49.28388" lon="-0.25058">
        <ele>6</ele>
        <time>2022-06-09T07:44:54Z</time>
      </trkpt>
      <trkpt lat="49.28275" lon="-0.25064">
        <ele>8</ele>
        <time>2022-06-09T07:45:14Z</time>
      </trkpt>
      <trkpt lat="49.28239" lon="-0.2498">
        <ele>6</ele>
        <time>2022-06-09T07:45:26Z</time>
      </trkpt>
      <trkpt lat="49.28129" lon="-0.24995">
        <ele>5</ele>
        <time>2022-06-09T07:45:45Z</time>
      </trkpt>
      <trkpt lat="49.28113" lon="-0.25024">
        <ele>5</ele>
        <time>2022-06-09T07:45:50Z</time>
      </trkpt>
      <trkpt lat="49.28028" lon="-0.25068">
        <ele>5</ele>
        <time>2022-06-09T07:46:06Z</time>
      </trkpt>
      <trkpt lat="49.27975" lon="-0.25072">
        <ele>5</ele>
        <time>2022-06-09T07:46:15Z</time>
      </trkpt>
      <trkpt lat="49.27935" lon="-0.25064">
        <ele>4</ele>
        <time>2022-06-09T07:46:22Z</time>
      </trkpt>
      <trkpt lat="49.27903" lon="-0.2509">
        <ele>4</ele>
        <time>2022-06-09T07:46:29Z</time>
      </trkpt>
      <trkpt lat="49.27887" lon="-0.25074">
        <ele>4</ele>
        <time>2022-06-09T07:46:32Z</time>
      </trkpt>
      <trkpt lat="49.27883" lon="-0.25027">
        <ele>4</ele>
        <time>2022-06-09T07:46:38Z</time>
      </trkpt>
      <trkpt lat="49.27851" lon="-0.25028">
        <ele>3</ele>
        <time>2022-06-09T07:46:43Z</time>
      </trkpt>
      <trkpt lat="49.27754" lon="-0.25053">
        <ele>6</ele>
        <time>2022-06-09T07:47:01Z</time>
      </trkpt>
      <trkpt lat="49.27657" lon="-0.25078">
        <ele>5</ele>
        <time>2022-06-09T07:47:18Z</time>
      </trkpt>
      <trkpt lat="49.2756" lon="-0.25102">
        <ele>5</ele>
        <time>2022-06-09T07:47:36Z</time>
      </trkpt>
      <trkpt lat="49.27471" lon="-0.25131">
        <ele>5</ele>
        <time>2022-06-09T07:47:52Z</time>
      </trkpt>
      <trkpt lat="49.27382" lon="-0.25155">
        <ele>5</ele>
        <time>2022-06-09T07:48:08Z</time>
      </trkpt>
      <trkpt lat="49.27292" lon="-0.2518">
        <ele>5</ele>
        <time>2022-06-09T07:48:24Z</time>
      </trkpt>
      <trkpt lat="49.27261" lon="-0.2519">
        <ele>4</ele>
        <time>2022-06-09T07:48:30Z</time>
      </trkpt>
      <trkpt lat="49.2724" lon="-0.25213">
        <ele>4</ele>
        <time>2022-06-09T07:48:34Z</time>
      </trkpt>
      <trkpt lat="49.27235" lon="-0.25203">
        <ele>4</ele>
        <time>2022-06-09T07:48:36Z</time>
      </trkpt>
      <trkpt lat="49.27177" lon="-0.25222">
        <ele>3</ele>
        <time>2022-06-09T07:48:47Z</time>
      </trkpt>
      <trkpt lat="49.27157" lon="-0.25216">
        <ele>2</ele>
        <time>2022-06-09T07:48:50Z</time>
      </trkpt>
      <trkpt lat="49.27099" lon="-0.25232">
        <ele>2</ele>
        <time>2022-06-09T07:49:01Z</time>
      </trkpt>
      <trkpt lat="49.27077" lon="-0.25219">
        <ele>2</ele>
        <time>2022-06-09T07:49:05Z</time>
      </trkpt>
      <trkpt lat="49.27059" lon="-0.2522">
        <ele>3</ele>
        <time>2022-06-09T07:49:08Z</time>
      </trkpt>
      <trkpt lat="49.26963" lon="-0.25246">
        <ele>3</ele>
        <time>2022-06-09T07:49:25Z</time>
      </trkpt>
      <trkpt lat="49.26868" lon="-0.25271">
        <ele>3</ele>
        <time>2022-06-09T07:49:43Z</time>
      </trkpt>
      <trkpt lat="49.26772" lon="-0.25297">
        <ele>5</ele>
        <time>2022-06-09T07:50:00Z</time>
      </trkpt>
      <trkpt lat="49.26676" lon="-0.25323">
        <ele>6</ele>
        <time>2022-06-09T07:50:17Z</time>
      </trkpt>
      <trkpt lat="49.26569" lon="-0.25352">
        <ele>5</ele>
        <time>2022-06-09T07:50:37Z</time>
      </trkpt>
      <trkpt lat="49.26462" lon="-0.25381">
        <ele>5</ele>
        <time>2022-06-09T07:50:56Z</time>
      </trkpt>
      <trkpt lat="49.2638" lon="-0.2542">
        <ele>4</ele>
        <time>2022-06-09T07:51:11Z</time>
      </trkpt>
      <trkpt lat="49.26291" lon="-0.25467">
        <ele>3</ele>
        <time>2022-06-09T07:51:28Z</time>
      </trkpt>
      <trkpt lat="49.26201" lon="-0.25519">
        <ele>4</ele>
        <time>2022-06-09T07:51:45Z</time>
      </trkpt>
      <trkpt lat="49.26113" lon="-0.25576">
        <ele>5</ele>
        <time>2022-06-09T07:52:02Z</time>
      </trkpt>
      <trkpt lat="49.2603" lon="-0.25649">
        <ele>4</ele>
        <time>2022-06-09T07:52:19Z</time>
      </trkpt>
      <trkpt lat="49.25947" lon="-0.25722">
        <ele>3.9</ele>
        <time>2022-06-09T07:52:36Z</time>
      </trkpt>
      <trkpt lat="49.25871" lon="-0.25807">
        <ele>4</ele>
        <time>2022-06-09T07:52:53Z</time>
      </trkpt>
      <trkpt lat="49.25828" lon="-0.25861">
        <ele>6</ele>
        <time>2022-06-09T07:53:03Z</time>
      </trkpt>
      <trkpt lat="49.25808" lon="-0.25899">
        <ele>6</ele>
        <time>2022-06-09T07:53:08Z</time>
      </trkpt>
      <trkpt lat="49.25734" lon="-0.26078">
        <ele>10</ele>
        <time>2022-06-09T07:53:33Z</time>
      </trkpt>
      <trkpt lat="49.25668" lon="-0.26263">
        <ele>11</ele>
        <time>2022-06-09T07:53:57Z</time>
      </trkpt>
      <trkpt lat="49.25609" lon="-0.26394">
        <ele>10</ele>
        <time>2022-06-09T07:54:16Z</time>
      </trkpt>
      <trkpt lat="49.25536" lon="-0.26507">
        <ele>9</ele>
        <time>2022-06-09T07:54:34Z</time>
      </trkpt>
      <trkpt lat="49.25453" lon="-0.26607">
        <ele>7</ele>
        <time>2022-06-09T07:54:53Z</time>
      </trkpt>
      <trkpt lat="49.25362" lon="-0.26696">
        <ele>3</ele>
        <time>2022-06-09T07:55:12Z</time>
      </trkpt>
      <trkpt lat="49.25264" lon="-0.26764">
        <ele>6</ele>
        <time>2022-06-09T07:55:32Z</time>
      </trkpt>
      <trkpt lat="49.25168" lon="-0.26838">
        <ele>5</ele>
        <time>2022-06-09T07:55:51Z</time>
      </trkpt>
      <trkpt lat="49.25069" lon="-0.26912">
        <ele>3</ele>
        <time>2022-06-09T07:56:10Z</time>
      </trkpt>
      <trkpt lat="49.2497" lon="-0.2699">
        <ele>3</ele>
        <time>2022-06-09T07:56:30Z</time>
      </trkpt>
      <trkpt lat="49.24872" lon="-0.27069">
        <ele>3</ele>
        <time>2022-06-09T07:56:50Z</time>
      </trkpt>
      <trkpt lat="49.2477" lon="-0.27141">
        <ele>1</ele>
        <time>2022-06-09T07:57:10Z</time>
      </trkpt>
      <trkpt lat="49.24669" lon="-0.27213">
        <ele>2</ele>
        <time>2022-06-09T07:57:30Z</time>
      </trkpt>
      <trkpt lat="49.24623" lon="-0.27232">
        <ele>3</ele>
        <time>2022-06-09T07:57:38Z</time>
      </trkpt>
      <trkpt lat="49.24576" lon="-0.27278">
        <ele>3</ele>
        <time>2022-06-09T07:57:48Z</time>
      </trkpt>
      <trkpt lat="49.24468" lon="-0.27356">
        <ele>2</ele>
        <time>2022-06-09T07:58:09Z</time>
      </trkpt>
      <trkpt lat="49.24361" lon="-0.27433">
        <ele>3</ele>
        <time>2022-06-09T07:58:30Z</time>
      </trkpt>
      <trkpt lat="49.24308" lon="-0.27449">
        <ele>3</ele>
        <time>2022-06-09T07:58:40Z</time>
      </trkpt>
      <trkpt lat="49.24276" lon="-0.27465">
        <ele>4</ele>
        <time>2022-06-09T07:58:46Z</time>
      </trkpt>
      <trkpt lat="49.24214" lon="-0.27507">
        <ele>5</ele>
        <time>2022-06-09T07:58:58Z</time>
      </trkpt>
      <trkpt lat="49.2419" lon="-0.27537">
        <ele>5</ele>
        <time>2022-06-09T07:59:03Z</time>
      </trkpt>
      <trkpt lat="49.24153" lon="-0.27583">
        <ele>6</ele>
        <time>2022-06-09T07:59:12Z</time>
      </trkpt>
      <trkpt lat="49.24045" lon="-0.27667">
        <ele>7</ele>
        <time>2022-06-09T07:59:33Z</time>
      </trkpt>
      <trkpt lat="49.23933" lon="-0.2775">
        <ele>5</ele>
        <time>2022-06-09T07:59:56Z</time>
      </trkpt>
      <trkpt lat="49.23821" lon="-0.27833">
        <ele>7</ele>
        <time>2022-06-09T08:00:18Z</time>
      </trkpt>
      <trkpt lat="49.23713" lon="-0.27923">
        <ele>6</ele>
        <time>2022-06-09T08:00:40Z</time>
      </trkpt>
      <trkpt lat="49.23624" lon="-0.28002">
        <ele>6</ele>
        <time>2022-06-09T08:00:58Z</time>
      </trkpt>
      <trkpt lat="49.23556" lon="-0.28077">
        <ele>9</ele>
        <time>2022-06-09T08:01:13Z</time>
      </trkpt>
      <trkpt lat="49.23488" lon="-0.28152">
        <ele>9</ele>
        <time>2022-06-09T08:01:28Z</time>
      </trkpt>
      <trkpt lat="49.23421" lon="-0.28235">
        <ele>12</ele>
        <time>2022-06-09T08:01:43Z</time>
      </trkpt>
      <trkpt lat="49.23358" lon="-0.28343">
        <ele>10</ele>
        <time>2022-06-09T08:02:00Z</time>
      </trkpt>
      <trkpt lat="49.23293" lon="-0.28452">
        <ele>7</ele>
        <time>2022-06-09T08:02:17Z</time>
      </trkpt>
      <trkpt lat="49.2323" lon="-0.28561">
        <ele>4</ele>
        <time>2022-06-09T08:02:34Z</time>
      </trkpt>
      <trkpt lat="49.23172" lon="-0.28676">
        <ele>5</ele>
        <time>2022-06-09T08:02:51Z</time>
      </trkpt>
      <trkpt lat="49.23112" lon="-0.2879">
        <ele>5</ele>
        <time>2022-06-09T08:03:08Z</time>
      </trkpt>
      <trkpt lat="49.23052" lon="-0.28903">
        <ele>5</ele>
        <time>2022-06-09T08:03:25Z</time>
      </trkpt>
      <trkpt lat="49.22994" lon="-0.29017">
        <ele>7</ele>
        <time>2022-06-09T08:03:42Z</time>
      </trkpt>
      <trkpt lat="49.22938" lon="-0.29135">
        <ele>6</ele>
        <time>2022-06-09T08:03:59Z</time>
      </trkpt>
      <trkpt lat="49.22878" lon="-0.29254">
        <ele>5</ele>
        <time>2022-06-09T08:04:16Z</time>
      </trkpt>
      <trkpt lat="49.22818" lon="-0.29373">
        <ele>5</ele>
        <time>2022-06-09T08:04:33Z</time>
      </trkpt>
      <trkpt lat="49.22756" lon="-0.2949">
        <ele>1</ele>
        <time>2022-06-09T08:04:51Z</time>
      </trkpt>
      <trkpt lat="49.22695" lon="-0.29608">
        <ele>2</ele>
        <time>2022-06-09T08:05:08Z</time>
      </trkpt>
      <trkpt lat="49.22634" lon="-0.29725">
        <ele>1</ele>
        <time>2022-06-09T08:05:26Z</time>
      </trkpt>
      <trkpt lat="49.22573" lon="-0.29842">
        <ele>2</ele>
        <time>2022-06-09T08:05:43Z</time>
      </trkpt>
      <trkpt lat="49.22514" lon="-0.29962">
        <ele>5</ele>
        <time>2022-06-09T08:06:01Z</time>
      </trkpt>
      <trkpt lat="49.22455" lon="-0.30081">
        <ele>3</ele>
        <time>2022-06-09T08:06:18Z</time>
      </trkpt>
      <trkpt lat="49.22393" lon="-0.30197">
        <ele>3</ele>
        <time>2022-06-09T08:06:35Z</time>
      </trkpt>
      <trkpt lat="49.22331" lon="-0.30317">
        <ele>3</ele>
        <time>2022-06-09T08:06:53Z</time>
      </trkpt>
      <trkpt lat="49.22269" lon="-0.30437">
        <ele>2</ele>
        <time>2022-06-09T08:07:11Z</time>
      </trkpt>
      <trkpt lat="49.22199" lon="-0.30537">
        <ele>1</ele>
        <time>2022-06-09T08:07:28Z</time>
      </trkpt>
      <trkpt lat="49.22118" lon="-0.30626">
        <ele>3</ele>
        <time>2022-06-09T08:07:46Z</time>
      </trkpt>
      <trkpt lat="49.2204" lon="-0.30693">
        <ele>4</ele>
        <time>2022-06-09T08:08:02Z</time>
      </trkpt>
      <trkpt lat="49.21949" lon="-0.30742">
        <ele>4</ele>
        <time>2022-06-09T08:08:19Z</time>
      </trkpt>
      <trkpt lat="49.21859" lon="-0.30802">
        <ele>5</ele>
        <time>2022-06-09T08:08:36Z</time>
      </trkpt>
      <trkpt lat="49.21767" lon="-0.30858">
        <ele>5</ele>
        <time>2022-06-09T08:08:54Z</time>
      </trkpt>
      <trkpt lat="49.21676" lon="-0.30914">
        <ele>6</ele>
        <time>2022-06-09T08:09:11Z</time>
      </trkpt>
      <trkpt lat="49.21584" lon="-0.3097">
        <ele>7</ele>
        <time>2022-06-09T08:09:29Z</time>
      </trkpt>
      <trkpt lat="49.21492" lon="-0.31026">
        <ele>10</ele>
        <time>2022-06-09T08:09:47Z</time>
      </trkpt>
      <trkpt lat="49.21401" lon="-0.31082">
        <ele>9</ele>
        <time>2022-06-09T08:10:04Z</time>
      </trkpt>
      <trkpt lat="49.21309" lon="-0.31139">
        <ele>4</ele>
        <time>2022-06-09T08:10:22Z</time>
      </trkpt>
      <trkpt lat="49.21216" lon="-0.31192">
        <ele>4</ele>
        <time>2022-06-09T08:10:39Z</time>
      </trkpt>
      <trkpt lat="49.21124" lon="-0.31246">
        <ele>2</ele>
        <time>2022-06-09T08:10:57Z</time>
      </trkpt>
      <trkpt lat="49.21032" lon="-0.31303">
        <ele>-1</ele>
        <time>2022-06-09T08:11:15Z</time>
      </trkpt>
      <trkpt lat="49.2094" lon="-0.31359">
        <ele>-2</ele>
        <time>2022-06-09T08:11:32Z</time>
      </trkpt>
      <trkpt lat="49.20848" lon="-0.31416">
        <ele>5</ele>
        <time>2022-06-09T08:11:50Z</time>
      </trkpt>
      <trkpt lat="49.20755" lon="-0.31473">
        <ele>2</ele>
        <time>2022-06-09T08:12:08Z</time>
      </trkpt>
      <trkpt lat="49.20685" lon="-0.31516">
        <ele>3</ele>
        <time>2022-06-09T08:12:21Z</time>
      </trkpt>
      <trkpt lat="49.20695" lon="-0.31563">
        <ele>2</ele>
        <time>2022-06-09T08:12:27Z</time>
      </trkpt>
      <trkpt lat="49.20638" lon="-0.31592">
        <ele>3</ele>
        <time>2022-06-09T08:12:38Z</time>
      </trkpt>
      <trkpt lat="49.20627" lon="-0.31566">
        <ele>4</ele>
        <time>2022-06-09T08:12:41Z</time>
      </trkpt>
      <trkpt lat="49.20605" lon="-0.31565">
        <ele>4</ele>
        <time>2022-06-09T08:12:45Z</time>
      </trkpt>
      <trkpt lat="49.20494" lon="-0.31625">
        <ele>4</ele>
        <time>2022-06-09T08:13:06Z</time>
      </trkpt>
      <trkpt lat="49.20387" lon="-0.3169">
        <ele>5</ele>
        <time>2022-06-09T08:13:27Z</time>
      </trkpt>
      <trkpt lat="49.20279" lon="-0.31755">
        <ele>7</ele>
        <time>2022-06-09T08:13:47Z</time>
      </trkpt>
      <trkpt lat="49.20177" lon="-0.31813">
        <ele>8</ele>
        <time>2022-06-09T08:14:07Z</time>
      </trkpt>
      <trkpt lat="49.20076" lon="-0.31882">
        <ele>6</ele>
        <time>2022-06-09T08:14:26Z</time>
      </trkpt>
      <trkpt lat="49.19971" lon="-0.31948">
        <ele>7</ele>
        <time>2022-06-09T08:14:46Z</time>
      </trkpt>
      <trkpt lat="49.19864" lon="-0.3201">
        <ele>9</ele>
        <time>2022-06-09T08:15:07Z</time>
      </trkpt>
      <trkpt lat="49.19758" lon="-0.32073">
        <ele>5</ele>
        <time>2022-06-09T08:15:27Z</time>
      </trkpt>
      <trkpt lat="49.19687" lon="-0.32115">
        <ele>3</ele>
        <time>2022-06-09T08:15:41Z</time>
      </trkpt>
      <trkpt lat="49.19615" lon="-0.32161">
        <ele>2</ele>
        <time>2022-06-09T08:15:54Z</time>
      </trkpt>
      <trkpt lat="49.19542" lon="-0.32206">
        <ele>4</ele>
        <time>2022-06-09T08:16:08Z</time>
      </trkpt>
      <trkpt lat="49.19469" lon="-0.32251">
        <ele>5</ele>
        <time>2022-06-09T08:16:22Z</time>
      </trkpt>
      <trkpt lat="49.19395" lon="-0.32295">
        <ele>6</ele>
        <time>2022-06-09T08:16:37Z</time>
      </trkpt>
      <trkpt lat="49.19322" lon="-0.3234">
        <ele>5</ele>
        <time>2022-06-09T08:16:51Z</time>
      </trkpt>
      <trkpt lat="49.19244" lon="-0.32381">
        <ele>3</ele>
        <time>2022-06-09T08:17:05Z</time>
      </trkpt>
      <trkpt lat="49.19165" lon="-0.32427">
        <ele>3</ele>
        <time>2022-06-09T08:17:20Z</time>
      </trkpt>
      <trkpt lat="49.19087" lon="-0.32482">
        <ele>8</ele>
        <time>2022-06-09T08:17:36Z</time>
      </trkpt>
      <trkpt lat="49.1901" lon="-0.32547">
        <ele>9</ele>
        <time>2022-06-09T08:17:51Z</time>
      </trkpt>
      <trkpt lat="49.18933" lon="-0.32622">
        <ele>10</ele>
        <time>2022-06-09T08:18:07Z</time>
      </trkpt>
      <trkpt lat="49.18858" lon="-0.32705">
        <ele>3</ele>
        <time>2022-06-09T08:18:24Z</time>
      </trkpt>
      <trkpt lat="49.18791" lon="-0.32806">
        <ele>2</ele>
        <time>2022-06-09T08:18:41Z</time>
      </trkpt>
      <trkpt lat="49.18723" lon="-0.32906">
        <ele>6</ele>
        <time>2022-06-09T08:18:57Z</time>
      </trkpt>
      <trkpt lat="49.18663" lon="-0.33035">
        <ele>9</ele>
        <time>2022-06-09T08:19:16Z</time>
      </trkpt>
      <trkpt lat="49.18603" lon="-0.33163">
        <ele>6</ele>
        <time>2022-06-09T08:19:34Z</time>
      </trkpt>
      <trkpt lat="49.18546" lon="-0.33336">
        <ele>7</ele>
        <time>2022-06-09T08:19:57Z</time>
      </trkpt>
      <trkpt lat="49.1854" lon="-0.33362">
        <ele>8</ele>
        <time>2022-06-09T08:20:00Z</time>
      </trkpt>
      <trkpt lat="49.18509" lon="-0.33473">
        <ele>7</ele>
        <time>2022-06-09T08:20:14Z</time>
      </trkpt>
      <trkpt lat="49.18468" lon="-0.33701">
        <ele>1</ele>
        <time>2022-06-09T08:20:41Z</time>
      </trkpt>
      <trkpt lat="49.18455" lon="-0.33851">
        <ele>6</ele>
        <time>2022-06-09T08:20:59Z</time>
      </trkpt>
      <trkpt lat="49.18445" lon="-0.34004">
        <ele>5</ele>
        <time>2022-06-09T08:21:17Z</time>
      </trkpt>
      <trkpt lat="49.18448" lon="-0.34183">
        <ele>3</ele>
        <time>2022-06-09T08:21:38Z</time>
      </trkpt>
      <trkpt lat="49.18451" lon="-0.34383">
        <ele>8</ele>
        <time>2022-06-09T08:22:01Z</time>
      </trkpt>
      <trkpt lat="49.18454" lon="-0.34584">
        <ele>5</ele>
        <time>2022-06-09T08:22:24Z</time>
      </trkpt>
      <trkpt lat="49.18454" lon="-0.34781">
        <ele>8</ele>
        <time>2022-06-09T08:22:47Z</time>
      </trkpt>
      <trkpt lat="49.18451" lon="-0.34973">
        <ele>6</ele>
        <time>2022-06-09T08:23:10Z</time>
      </trkpt>
      <trkpt lat="49.18419" lon="-0.35091">
        <ele>9</ele>
        <time>2022-06-09T08:23:24Z</time>
      </trkpt>
      <trkpt lat="49.18369" lon="-0.35194">
        <ele>6</ele>
        <time>2022-06-09T08:23:39Z</time>
      </trkpt>
      <trkpt lat="49.18312" lon="-0.35262">
        <ele>6</ele>
        <time>2022-06-09T08:23:52Z</time>
      </trkpt>
      <trkpt lat="49.18284" lon="-0.35207">
        <ele>5</ele>
        <time>2022-06-09T08:24:00Z</time>
      </trkpt>
      <trkpt lat="49.18251" lon="-0.35202">
        <ele>5</ele>
        <time>2022-06-09T08:24:06Z</time>
      </trkpt>
      <trkpt lat="49.18167" lon="-0.35049">
        <ele>4</ele>
        <time>2022-06-09T08:24:30Z</time>
      </trkpt>
      <trkpt lat="49.18094" lon="-0.34907">
        <ele>4</ele>
        <time>2022-06-09T08:24:51Z</time>
      </trkpt>
      <trkpt lat="49.18027" lon="-0.34987">
        <ele>6</ele>
        <time>2022-06-09T08:25:06Z</time>
      </trkpt>
      <trkpt lat="49.17981" lon="-0.34963">
        <ele>6</ele>
        <time>2022-06-09T08:25:14Z</time>
      </trkpt>
      <trkpt lat="49.17872" lon="-0.35202">
        <ele>8</ele>
        <time>2022-06-09T08:25:48Z</time>
      </trkpt>
      <trkpt lat="49.17766" lon="-0.35445">
        <ele>10</ele>
        <time>2022-06-09T08:26:22Z</time>
      </trkpt>
      <trkpt lat="49.17664" lon="-0.3567">
        <ele>10</ele>
        <time>2022-06-09T08:26:54Z</time>
      </trkpt>
      <trkpt lat="49.17613" lon="-0.3578">
        <ele>10</ele>
        <time>2022-06-09T08:27:10Z</time>
      </trkpt>
      <trkpt lat="49.17716" lon="-0.35958">
        <ele>9</ele>
        <time>2022-06-09T08:27:37Z</time>
      </trkpt>
      <trkpt lat="49.17815" lon="-0.3612">
        <ele>12</ele>
        <time>2022-06-09T08:28:03Z</time>
      </trkpt>
      <trkpt lat="49.17845" lon="-0.36164">
        <ele>11</ele>
        <time>2022-06-09T08:28:11Z</time>
      </trkpt>
      <trkpt lat="49.17832" lon="-0.36215">
        <ele>10</ele>
        <time>2022-06-09T08:28:17Z</time>
      </trkpt>
      <trkpt lat="49.17822" lon="-0.36266">
        <ele>9</ele>
        <time>2022-06-09T08:28:23Z</time>
      </trkpt>
      <trkpt lat="49.17803" lon="-0.36351">
        <ele>9</ele>
        <time>2022-06-09T08:28:34Z</time>
      </trkpt>
      <trkpt lat="49.17777" lon="-0.36498">
        <ele>9</ele>
        <time>2022-06-09T08:28:51Z</time>
      </trkpt>
      <trkpt lat="49.17757" lon="-0.36624">
        <ele>9</ele>
        <time>2022-06-09T08:29:06Z</time>
      </trkpt>
      <trkpt lat="49.17727" lon="-0.36725">
        <ele>8</ele>
        <time>2022-06-09T08:29:19Z</time>
      </trkpt>
      <trkpt lat="49.17667" lon="-0.36853">
        <ele>6</ele>
        <time>2022-06-09T08:29:38Z</time>
      </trkpt>
      <trkpt lat="49.17619" lon="-0.36937">
        <ele>7</ele>
        <time>2022-06-09T08:29:51Z</time>
      </trkpt>
      <trkpt lat="49.17519" lon="-0.37107">
        <ele>7</ele>
        <time>2022-06-09T08:30:17Z</time>
      </trkpt>
      <trkpt lat="49.17377" lon="-0.37355">
        <ele>9</ele>
        <time>2022-06-09T08:30:55Z</time>
      </trkpt>
      <trkpt lat="49.17314" lon="-0.37521">
        <ele>9</ele>
        <time>2022-06-09T08:31:18Z</time>
      </trkpt>
      <trkpt lat="49.17285" lon="-0.37729">
        <ele>9</ele>
        <time>2022-06-09T08:31:43Z</time>
      </trkpt>
      <trkpt lat="49.17257" lon="-0.38075">
        <ele>11</ele>
        <time>2022-06-09T08:32:23Z</time>
      </trkpt>
      <trkpt lat="49.17222" lon="-0.38383">
        <ele>16</ele>
        <time>2022-06-09T08:32:59Z</time>
      </trkpt>
      <trkpt lat="49.17224" lon="-0.38457">
        <ele>17</ele>
        <time>2022-06-09T08:33:08Z</time>
      </trkpt>
      <trkpt lat="49.1737" lon="-0.38578">
        <ele>27</ele>
        <time>2022-06-09T08:33:38Z</time>
      </trkpt>
      <trkpt lat="49.17522" lon="-0.38693">
        <ele>35</ele>
        <time>2022-06-09T08:34:08Z</time>
      </trkpt>
      <trkpt lat="49.17643" lon="-0.38772">
        <ele>37</ele>
        <time>2022-06-09T08:34:31Z</time>
      </trkpt>
      <trkpt lat="49.17731" lon="-0.38803">
        <ele>37</ele>
        <time>2022-06-09T08:34:47Z</time>
      </trkpt>
      <trkpt lat="49.1782" lon="-0.38805">
        <ele>37</ele>
        <time>2022-06-09T08:35:03Z</time>
      </trkpt>
      <trkpt lat="49.17922" lon="-0.38781">
        <ele>36</ele>
        <time>2022-06-09T08:35:21Z</time>
      </trkpt>
      <trkpt lat="49.18026" lon="-0.38753">
        <ele>31</ele>
        <time>2022-06-09T08:35:40Z</time>
      </trkpt>
      <trkpt lat="49.18129" lon="-0.38725">
        <ele>31</ele>
        <time>2022-06-09T08:35:59Z</time>
      </trkpt>
      <trkpt lat="49.18233" lon="-0.38698">
        <ele>34</ele>
        <time>2022-06-09T08:36:18Z</time>
      </trkpt>
      <trkpt lat="49.183" lon="-0.3868">
        <ele>34</ele>
        <time>2022-06-09T08:36:30Z</time>
      </trkpt>
      <trkpt lat="49.18395" lon="-0.38622">
        <ele>35</ele>
        <time>2022-06-09T08:36:48Z</time>
      </trkpt>
      <trkpt lat="49.18466" lon="-0.38549">
        <ele>35</ele>
        <time>2022-06-09T08:37:03Z</time>
      </trkpt>
      <trkpt lat="49.18532" lon="-0.3846">
        <ele>35</ele>
        <time>2022-06-09T08:37:19Z</time>
      </trkpt>
      <trkpt lat="49.18591" lon="-0.38329">
        <ele>37</ele>
        <time>2022-06-09T08:37:37Z</time>
      </trkpt>
      <trkpt lat="49.18635" lon="-0.38211">
        <ele>36</ele>
        <time>2022-06-09T08:37:53Z</time>
      </trkpt>
      <trkpt lat="49.1868" lon="-0.38094">
        <ele>37</ele>
        <time>2022-06-09T08:38:09Z</time>
      </trkpt>
      <trkpt lat="49.18725" lon="-0.37977">
        <ele>36</ele>
        <time>2022-06-09T08:38:25Z</time>
      </trkpt>
      <trkpt lat="49.18772" lon="-0.37863">
        <ele>37</ele>
        <time>2022-06-09T08:38:40Z</time>
      </trkpt>
      <trkpt lat="49.18803" lon="-0.37785">
        <ele>38</ele>
        <time>2022-06-09T08:38:51Z</time>
      </trkpt>
      <trkpt lat="49.18867" lon="-0.37705">
        <ele>40</ele>
        <time>2022-06-09T08:39:06Z</time>
      </trkpt>
      <trkpt lat="49.18949" lon="-0.37637">
        <ele>40</ele>
        <time>2022-06-09T08:39:22Z</time>
      </trkpt>
      <trkpt lat="49.1913" lon="-0.37553">
        <ele>40</ele>
        <time>2022-06-09T08:39:56Z</time>
      </trkpt>
      <trkpt lat="49.19236" lon="-0.37488">
        <ele>38</ele>
        <time>2022-06-09T08:40:16Z</time>
      </trkpt>
      <trkpt lat="49.1932" lon="-0.37463">
        <ele>38</ele>
        <time>2022-06-09T08:40:32Z</time>
      </trkpt>
      <trkpt lat="49.19424" lon="-0.3747">
        <ele>38</ele>
        <time>2022-06-09T08:40:50Z</time>
      </trkpt>
      <trkpt lat="49.19427" lon="-0.3745">
        <ele>37</ele>
        <time>2022-06-09T08:40:52Z</time>
      </trkpt>
      <trkpt lat="49.19474" lon="-0.37433">
        <ele>37</ele>
        <time>2022-06-09T08:41:01Z</time>
      </trkpt>
      <trkpt lat="49.19514" lon="-0.37413">
        <ele>36</ele>
        <time>2022-06-09T08:41:08Z</time>
      </trkpt>
      <trkpt lat="49.19551" lon="-0.37313">
        <ele>29</ele>
        <time>2022-06-09T08:41:22Z</time>
      </trkpt>
      <trkpt lat="49.19593" lon="-0.37315">
        <ele>29</ele>
        <time>2022-06-09T08:41:29Z</time>
      </trkpt>
      <trkpt lat="49.19645" lon="-0.37309">
        <ele>28</ele>
        <time>2022-06-09T08:41:39Z</time>
      </trkpt>
      <trkpt lat="49.19683" lon="-0.37314">
        <ele>28</ele>
        <time>2022-06-09T08:41:45Z</time>
      </trkpt>
      <trkpt lat="49.19733" lon="-0.37237">
        <ele>35</ele>
        <time>2022-06-09T08:41:58Z</time>
      </trkpt>
      <trkpt lat="49.19836" lon="-0.37257">
        <ele>39</ele>
        <time>2022-06-09T08:42:16Z</time>
      </trkpt>
      <trkpt lat="49.19914" lon="-0.37301">
        <ele>39</ele>
        <time>2022-06-09T08:42:31Z</time>
      </trkpt>
      <trkpt lat="49.20006" lon="-0.37372">
        <ele>43</ele>
        <time>2022-06-09T08:42:50Z</time>
      </trkpt>
      <trkpt lat="49.20097" lon="-0.37435">
        <ele>49</ele>
        <time>2022-06-09T08:43:07Z</time>
      </trkpt>
      <trkpt lat="49.20194" lon="-0.37473">
        <ele>53</ele>
        <time>2022-06-09T08:43:25Z</time>
      </trkpt>
      <trkpt lat="49.20268" lon="-0.3748">
        <ele>57</ele>
        <time>2022-06-09T08:43:38Z</time>
      </trkpt>
      <trkpt lat="49.2035" lon="-0.37494">
        <ele>58</ele>
        <time>2022-06-09T08:43:53Z</time>
      </trkpt>
      <trkpt lat="49.20449" lon="-0.3754">
        <ele>60</ele>
        <time>2022-06-09T08:44:11Z</time>
      </trkpt>
      <trkpt lat="49.20551" lon="-0.37599">
        <ele>60</ele>
        <time>2022-06-09T08:44:31Z</time>
      </trkpt>
      <trkpt lat="49.2063" lon="-0.37637">
        <ele>60</ele>
        <time>2022-06-09T08:44:46Z</time>
      </trkpt>
      <trkpt lat="49.20622" lon="-0.37699">
        <ele>61</ele>
        <time>2022-06-09T08:44:53Z</time>
      </trkpt>
      <trkpt lat="49.20599" lon="-0.37838">
        <ele>62</ele>
        <time>2022-06-09T08:45:10Z</time>
      </trkpt>
      <trkpt lat="49.20573" lon="-0.37945">
        <ele>63</ele>
        <time>2022-06-09T08:45:23Z</time>
      </trkpt>
      <trkpt lat="49.20442" lon="-0.38286">
        <ele>63</ele>
        <time>2022-06-09T08:46:09Z</time>
      </trkpt>
      <trkpt lat="49.20357" lon="-0.38459">
        <ele>66</ele>
        <time>2022-06-09T08:46:34Z</time>
      </trkpt>
      <trkpt lat="49.20273" lon="-0.38634">
        <ele>66</ele>
        <time>2022-06-09T08:46:59Z</time>
      </trkpt>
      <trkpt lat="49.20212" lon="-0.38737">
        <ele>66</ele>
        <time>2022-06-09T08:47:15Z</time>
      </trkpt>
      <trkpt lat="49.20168" lon="-0.38784">
        <ele>66</ele>
        <time>2022-06-09T08:47:25Z</time>
      </trkpt>
      <trkpt lat="49.20117" lon="-0.38826">
        <ele>65</ele>
        <time>2022-06-09T08:47:35Z</time>
      </trkpt>
      <trkpt lat="49.20224" lon="-0.39018">
        <ele>67</ele>
        <time>2022-06-09T08:48:05Z</time>
      </trkpt>
      <trkpt lat="49.20277" lon="-0.3911">
        <ele>67</ele>
        <time>2022-06-09T08:48:19Z</time>
      </trkpt>
      <trkpt lat="49.2032" lon="-0.39104">
        <ele>68</ele>
        <time>2022-06-09T08:48:27Z</time>
      </trkpt>
      <trkpt lat="49.20337" lon="-0.39143">
        <ele>68</ele>
        <time>2022-06-09T08:48:32Z</time>
      </trkpt>
      <trkpt lat="49.20328" lon="-0.39186">
        <ele>68</ele>
        <time>2022-06-09T08:48:37Z</time>
      </trkpt>
      <trkpt lat="49.203" lon="-0.39206">
        <ele>67</ele>
        <time>2022-06-09T08:48:43Z</time>
      </trkpt>
      <trkpt lat="49.20265" lon="-0.39327">
        <ele>66</ele>
        <time>2022-06-09T08:48:58Z</time>
      </trkpt>
      <trkpt lat="49.20224" lon="-0.3941">
        <ele>64</ele>
        <time>2022-06-09T08:49:10Z</time>
      </trkpt>
      <trkpt lat="49.20171" lon="-0.39491">
        <ele>64</ele>
        <time>2022-06-09T08:49:24Z</time>
      </trkpt>
      <trkpt lat="49.20112" lon="-0.39563">
        <ele>64</ele>
        <time>2022-06-09T08:49:37Z</time>
      </trkpt>
      <trkpt lat="49.20109" lon="-0.396">
        <ele>64</ele>
        <time>2022-06-09T08:49:41Z</time>
      </trkpt>
      <trkpt lat="49.20133" lon="-0.39685">
        <ele>65</ele>
        <time>2022-06-09T08:49:52Z</time>
      </trkpt>
      <trkpt lat="49.20156" lon="-0.39805">
        <ele>64</ele>
        <time>2022-06-09T08:50:07Z</time>
      </trkpt>
      <trkpt lat="49.20165" lon="-0.40063">
        <ele>65</ele>
        <time>2022-06-09T08:50:37Z</time>
      </trkpt>
      <trkpt lat="49.20176" lon="-0.4034">
        <ele>65</ele>
        <time>2022-06-09T08:51:09Z</time>
      </trkpt>
      <trkpt lat="49.20214" lon="-0.40525">
        <ele>66</ele>
        <time>2022-06-09T08:51:32Z</time>
      </trkpt>
      <trkpt lat="49.20165" lon="-0.40543">
        <ele>67</ele>
        <time>2022-06-09T08:51:40Z</time>
      </trkpt>
      <trkpt lat="49.20118" lon="-0.40637">
        <ele>66</ele>
        <time>2022-06-09T08:51:54Z</time>
      </trkpt>
      <trkpt lat="49.20083" lon="-0.40702">
        <ele>65</ele>
        <time>2022-06-09T08:52:04Z</time>
      </trkpt>
      <trkpt lat="49.20033" lon="-0.40767">
        <ele>67</ele>
        <time>2022-06-09T08:52:16Z</time>
      </trkpt>
      <trkpt lat="49.19972" lon="-0.4083">
        <ele>67</ele>
        <time>2022-06-09T08:52:29Z</time>
      </trkpt>
      <trkpt lat="49.19942" lon="-0.40831">
        <ele>67</ele>
        <time>2022-06-09T08:52:34Z</time>
      </trkpt>
      <trkpt lat="49.19911" lon="-0.40876">
        <ele>66</ele>
        <time>2022-06-09T08:52:42Z</time>
      </trkpt>
      <trkpt lat="49.19899" lon="-0.40929">
        <ele>66</ele>
        <time>2022-06-09T08:52:48Z</time>
      </trkpt>
    </trkseg>
  </trk>
</gpx>